sensor_id;sensor_type;location;lat;lon;timestamp;P1;durP1;ratioP1;P2;durP2;ratioP2
29044;SDS011;16133;49.486;12.176;2023-04-15T00:01:46;26.92;;;13.32;;
29044;SDS011;16133;49.486;12.176;2023-04-15T00:04:12;30.42;;;13.32;;
29044;SDS011;16133;49.486;12.176;2023-04-15T00:06:37;22.92;;;11.40;;
29044;SDS011;16133;49.486;12.176;2023-04-15T00:09:04;22.65;;;11.60;;
29044;SDS011;16133;49.486;12.176;2023-04-15T00:11:29;23.40;;;11.82;;
29044;SDS011;16133;49.486;12.176;2023-04-15T00:13:55;25.92;;;11.82;;
29044;SDS011;16133;49.486;12.176;2023-04-15T00:16:20;23.55;;;11.52;;
29044;SDS011;16133;49.486;12.176;2023-04-15T00:18:46;21.52;;;11.13;;
29044;SDS011;16133;49.486;12.176;2023-04-15T00:21:11;21.25;;;10.93;;
29044;SDS011;16133;49.486;12.176;2023-04-15T00:23:36;21.17;;;10.25;;
29044;SDS011;16133;49.486;12.176;2023-04-15T00:26:02;25.42;;;11.07;;
29044;SDS011;16133;49.486;12.176;2023-04-15T00:28:27;21.35;;;9.60;;
29044;SDS011;16133;49.486;12.176;2023-04-15T00:30:53;21.25;;;10.05;;
29044;SDS011;16133;49.486;12.176;2023-04-15T00:33:18;19.30;;;9.57;;
29044;SDS011;16133;49.486;12.176;2023-04-15T00:35:44;16.35;;;8.38;;
29044;SDS011;16133;49.486;12.176;2023-04-15T00:38:09;18.98;;;8.75;;
29044;SDS011;16133;49.486;12.176;2023-04-15T00:40:35;17.35;;;9.00;;
29044;SDS011;16133;49.486;12.176;2023-04-15T00:43:01;18.10;;;9.27;;
29044;SDS011;16133;49.486;12.176;2023-04-15T00:45:28;16.35;;;8.50;;
29044;SDS011;16133;49.486;12.176;2023-04-15T00:47:54;18.10;;;8.82;;
29044;SDS011;16133;49.486;12.176;2023-04-15T00:50:20;18.30;;;9.02;;
29044;SDS011;16133;49.486;12.176;2023-04-15T00:52:46;14.30;;;7.90;;
29044;SDS011;16133;49.486;12.176;2023-04-15T00:55:11;19.70;;;9.15;;
29044;SDS011;16133;49.486;12.176;2023-04-15T00:57:38;22.48;;;9.85;;
29044;SDS011;16133;49.486;12.176;2023-04-15T01:00:04;16.58;;;8.60;;
29044;SDS011;16133;49.486;12.176;2023-04-15T01:02:33;17.08;;;9.70;;
29044;SDS011;16133;49.486;12.176;2023-04-15T01:04:59;17.13;;;8.95;;
29044;SDS011;16133;49.486;12.176;2023-04-15T01:07:24;15.43;;;8.68;;
29044;SDS011;16133;49.486;12.176;2023-04-15T01:09:50;16.55;;;9.35;;
29044;SDS011;16133;49.486;12.176;2023-04-15T01:12:17;16.92;;;9.10;;
29044;SDS011;16133;49.486;12.176;2023-04-15T01:14:44;20.27;;;10.55;;
29044;SDS011;16133;49.486;12.176;2023-04-15T01:17:09;22.50;;;9.98;;
29044;SDS011;16133;49.486;12.176;2023-04-15T01:19:35;20.88;;;10.70;;
29044;SDS011;16133;49.486;12.176;2023-04-15T01:22:01;20.08;;;10.00;;
29044;SDS011;16133;49.486;12.176;2023-04-15T01:24:27;22.48;;;9.98;;
29044;SDS011;16133;49.486;12.176;2023-04-15T01:26:54;29.85;;;12.27;;
29044;SDS011;16133;49.486;12.176;2023-04-15T01:29:19;19.25;;;10.80;;
29044;SDS011;16133;49.486;12.176;2023-04-15T01:31:51;21.08;;;10.95;;
29044;SDS011;16133;49.486;12.176;2023-04-15T01:34:18;20.13;;;10.57;;
29044;SDS011;16133;49.486;12.176;2023-04-15T01:36:44;20.95;;;9.95;;
29044;SDS011;16133;49.486;12.176;2023-04-15T01:39:10;23.35;;;11.07;;
29044;SDS011;16133;49.486;12.176;2023-04-15T01:41:35;24.33;;;11.38;;
29044;SDS011;16133;49.486;12.176;2023-04-15T01:44:01;20.85;;;11.13;;
29044;SDS011;16133;49.486;12.176;2023-04-15T01:46:26;21.42;;;11.25;;
29044;SDS011;16133;49.486;12.176;2023-04-15T01:48:51;24.02;;;10.90;;
29044;SDS011;16133;49.486;12.176;2023-04-15T01:51:17;21.00;;;10.00;;
29044;SDS011;16133;49.486;12.176;2023-04-15T01:53:42;21.83;;;10.05;;
29044;SDS011;16133;49.486;12.176;2023-04-15T01:56:07;22.27;;;10.55;;
29044;SDS011;16133;49.486;12.176;2023-04-15T01:58:33;18.83;;;9.52;;
29044;SDS011;16133;49.486;12.176;2023-04-15T02:00:58;19.02;;;9.95;;
29044;SDS011;16133;49.486;12.176;2023-04-15T02:03:24;19.55;;;9.30;;
29044;SDS011;16133;49.486;12.176;2023-04-15T02:05:49;19.92;;;9.85;;
29044;SDS011;16133;49.486;12.176;2023-04-15T02:08:15;19.70;;;9.63;;
29044;SDS011;16133;49.486;12.176;2023-04-15T02:10:41;18.15;;;9.40;;
29044;SDS011;16133;49.486;12.176;2023-04-15T02:13:06;22.60;;;9.63;;
29044;SDS011;16133;49.486;12.176;2023-04-15T02:15:32;17.17;;;8.60;;
29044;SDS011;16133;49.486;12.176;2023-04-15T02:17:58;19.73;;;9.27;;
29044;SDS011;16133;49.486;12.176;2023-04-15T02:20:24;21.85;;;9.80;;
29044;SDS011;16133;49.486;12.176;2023-04-15T02:22:50;23.98;;;10.45;;
29044;SDS011;16133;49.486;12.176;2023-04-15T02:25:16;19.90;;;9.15;;
29044;SDS011;16133;49.486;12.176;2023-04-15T02:27:42;19.38;;;8.70;;
29044;SDS011;16133;49.486;12.176;2023-04-15T02:30:10;22.35;;;10.38;;
29044;SDS011;16133;49.486;12.176;2023-04-15T02:32:36;18.95;;;8.48;;
29044;SDS011;16133;49.486;12.176;2023-04-15T02:35:02;18.35;;;9.50;;
29044;SDS011;16133;49.486;12.176;2023-04-15T02:37:29;21.45;;;9.70;;
29044;SDS011;16133;49.486;12.176;2023-04-15T02:39:56;18.45;;;9.38;;
29044;SDS011;16133;49.486;12.176;2023-04-15T02:42:21;22.00;;;10.50;;
29044;SDS011;16133;49.486;12.176;2023-04-15T02:44:46;21.60;;;9.30;;
29044;SDS011;16133;49.486;12.176;2023-04-15T02:47:12;18.55;;;9.27;;
29044;SDS011;16133;49.486;12.176;2023-04-15T02:49:38;16.75;;;8.68;;
29044;SDS011;16133;49.486;12.176;2023-04-15T02:52:04;19.40;;;9.15;;
29044;SDS011;16133;49.486;12.176;2023-04-15T02:54:30;22.35;;;10.80;;
29044;SDS011;16133;49.486;12.176;2023-04-15T02:56:57;20.88;;;9.82;;
29044;SDS011;16133;49.486;12.176;2023-04-15T02:59:23;18.65;;;8.95;;
29044;SDS011;16133;49.486;12.176;2023-04-15T03:01:48;26.58;;;10.82;;
29044;SDS011;16133;49.486;12.176;2023-04-15T03:04:14;16.77;;;8.57;;
29044;SDS011;16133;49.486;12.176;2023-04-15T03:06:39;19.13;;;8.30;;
29044;SDS011;16133;49.486;12.176;2023-04-15T03:09:05;18.00;;;9.23;;
29044;SDS011;16133;49.486;12.176;2023-04-15T03:11:31;20.80;;;9.50;;
29044;SDS011;16133;49.486;12.176;2023-04-15T03:13:57;19.95;;;9.40;;
29044;SDS011;16133;49.486;12.176;2023-04-15T03:16:22;24.65;;;11.63;;
29044;SDS011;16133;49.486;12.176;2023-04-15T03:18:48;21.30;;;9.52;;
29044;SDS011;16133;49.486;12.176;2023-04-15T03:21:14;22.27;;;9.93;;
29044;SDS011;16133;49.486;12.176;2023-04-15T03:23:40;17.33;;;8.38;;
29044;SDS011;16133;49.486;12.176;2023-04-15T03:26:05;18.75;;;8.95;;
29044;SDS011;16133;49.486;12.176;2023-04-15T03:28:30;18.90;;;9.77;;
29044;SDS011;16133;49.486;12.176;2023-04-15T03:30:56;22.02;;;9.80;;
29044;SDS011;16133;49.486;12.176;2023-04-15T03:33:22;16.50;;;8.80;;
29044;SDS011;16133;49.486;12.176;2023-04-15T03:35:47;19.48;;;9.20;;
29044;SDS011;16133;49.486;12.176;2023-04-15T03:38:14;34.53;;;11.68;;
29044;SDS011;16133;49.486;12.176;2023-04-15T03:40:40;19.13;;;9.38;;
29044;SDS011;16133;49.486;12.176;2023-04-15T03:43:05;30.63;;;11.15;;
29044;SDS011;16133;49.486;12.176;2023-04-15T03:45:31;19.20;;;8.45;;
29044;SDS011;16133;49.486;12.176;2023-04-15T03:47:56;21.92;;;9.75;;
29044;SDS011;16133;49.486;12.176;2023-04-15T03:50:22;25.75;;;11.05;;
29044;SDS011;16133;49.486;12.176;2023-04-15T03:52:47;21.63;;;11.07;;
29044;SDS011;16133;49.486;12.176;2023-04-15T03:55:12;27.65;;;11.10;;
29044;SDS011;16133;49.486;12.176;2023-04-15T03:57:39;23.58;;;10.98;;
29044;SDS011;16133;49.486;12.176;2023-04-15T04:00:05;23.23;;;11.25;;
29044;SDS011;16133;49.486;12.176;2023-04-15T04:02:31;22.75;;;11.43;;
29044;SDS011;16133;49.486;12.176;2023-04-15T04:04:57;30.38;;;12.25;;
29044;SDS011;16133;49.486;12.176;2023-04-15T04:07:22;25.98;;;11.70;;
29044;SDS011;16133;49.486;12.176;2023-04-15T04:09:48;21.05;;;10.98;;
29044;SDS011;16133;49.486;12.176;2023-04-15T04:12:14;22.38;;;11.45;;
29044;SDS011;16133;49.486;12.176;2023-04-15T04:14:39;36.10;;;15.45;;
29044;SDS011;16133;49.486;12.176;2023-04-15T04:17:05;28.52;;;13.80;;
29044;SDS011;16133;49.486;12.176;2023-04-15T04:19:30;26.92;;;13.32;;
29044;SDS011;16133;49.486;12.176;2023-04-15T04:21:55;24.10;;;11.30;;
29044;SDS011;16133;49.486;12.176;2023-04-15T04:24:21;44.72;;;17.88;;
29044;SDS011;16133;49.486;12.176;2023-04-15T04:26:46;70.25;;;24.48;;
29044;SDS011;16133;49.486;12.176;2023-04-15T04:29:12;42.22;;;17.38;;
29044;SDS011;16133;49.486;12.176;2023-04-15T04:31:37;118.82;;;41.50;;
29044;SDS011;16133;49.486;12.176;2023-04-15T04:34:03;105.15;;;37.85;;
29044;SDS011;16133;49.486;12.176;2023-04-15T04:36:28;77.57;;;29.25;;
29044;SDS011;16133;49.486;12.176;2023-04-15T04:38:53;60.53;;;23.05;;
29044;SDS011;16133;49.486;12.176;2023-04-15T04:41:18;37.30;;;16.85;;
29044;SDS011;16133;49.486;12.176;2023-04-15T04:43:44;40.47;;;17.52;;
29044;SDS011;16133;49.486;12.176;2023-04-15T04:46:09;38.10;;;17.58;;
29044;SDS011;16133;49.486;12.176;2023-04-15T04:48:35;33.92;;;16.40;;
29044;SDS011;16133;49.486;12.176;2023-04-15T04:51:01;34.30;;;15.00;;
29044;SDS011;16133;49.486;12.176;2023-04-15T04:53:27;23.40;;;11.50;;
29044;SDS011;16133;49.486;12.176;2023-04-15T04:55:52;22.35;;;9.68;;
29044;SDS011;16133;49.486;12.176;2023-04-15T04:58:17;18.10;;;8.05;;
29044;SDS011;16133;49.486;12.176;2023-04-15T05:00:43;13.10;;;6.43;;
29044;SDS011;16133;49.486;12.176;2023-04-15T05:03:08;9.00;;;5.07;;
29044;SDS011;16133;49.486;12.176;2023-04-15T05:05:34;12.70;;;6.07;;
29044;SDS011;16133;49.486;12.176;2023-04-15T05:08:00;12.18;;;6.28;;
29044;SDS011;16133;49.486;12.176;2023-04-15T05:10:26;12.23;;;5.78;;
29044;SDS011;16133;49.486;12.176;2023-04-15T05:12:51;11.80;;;5.40;;
29044;SDS011;16133;49.486;12.176;2023-04-15T05:15:17;10.02;;;5.43;;
29044;SDS011;16133;49.486;12.176;2023-04-15T05:17:42;15.95;;;7.32;;
29044;SDS011;16133;49.486;12.176;2023-04-15T05:20:08;11.82;;;5.97;;
29044;SDS011;16133;49.486;12.176;2023-04-15T05:22:34;12.45;;;5.78;;
29044;SDS011;16133;49.486;12.176;2023-04-15T05:24:59;11.05;;;5.70;;
29044;SDS011;16133;49.486;12.176;2023-04-15T05:27:25;10.52;;;5.00;;
29044;SDS011;16133;49.486;12.176;2023-04-15T05:29:50;12.45;;;6.72;;
29044;SDS011;16133;49.486;12.176;2023-04-15T05:32:15;9.43;;;5.03;;
29044;SDS011;16133;49.486;12.176;2023-04-15T05:34:41;11.57;;;5.85;;
29044;SDS011;16133;49.486;12.176;2023-04-15T05:37:06;9.15;;;4.75;;
29044;SDS011;16133;49.486;12.176;2023-04-15T05:39:32;11.23;;;5.47;;
29044;SDS011;16133;49.486;12.176;2023-04-15T05:41:57;11.82;;;6.13;;
29044;SDS011;16133;49.486;12.176;2023-04-15T05:44:23;10.27;;;4.90;;
29044;SDS011;16133;49.486;12.176;2023-04-15T05:46:49;9.48;;;4.93;;
29044;SDS011;16133;49.486;12.176;2023-04-15T05:49:14;12.27;;;5.38;;
29044;SDS011;16133;49.486;12.176;2023-04-15T05:51:40;13.73;;;6.72;;
29044;SDS011;16133;49.486;12.176;2023-04-15T05:54:05;11.68;;;6.15;;
29044;SDS011;16133;49.486;12.176;2023-04-15T05:56:31;13.63;;;6.30;;
29044;SDS011;16133;49.486;12.176;2023-04-15T05:58:56;9.63;;;5.38;;
29044;SDS011;16133;49.486;12.176;2023-04-15T06:01:21;11.80;;;5.30;;
29044;SDS011;16133;49.486;12.176;2023-04-15T06:03:47;8.85;;;5.18;;
29044;SDS011;16133;49.486;12.176;2023-04-15T06:06:13;10.10;;;5.35;;
29044;SDS011;16133;49.486;12.176;2023-04-15T06:08:39;14.90;;;6.57;;
29044;SDS011;16133;49.486;12.176;2023-04-15T06:11:05;11.48;;;5.70;;
29044;SDS011;16133;49.486;12.176;2023-04-15T06:13:31;9.27;;;5.63;;
29044;SDS011;16133;49.486;12.176;2023-04-15T06:15:56;9.55;;;5.53;;
29044;SDS011;16133;49.486;12.176;2023-04-15T06:18:21;11.75;;;5.72;;
29044;SDS011;16133;49.486;12.176;2023-04-15T06:20:47;9.93;;;5.40;;
29044;SDS011;16133;49.486;12.176;2023-04-15T06:23:12;9.70;;;5.63;;
29044;SDS011;16133;49.486;12.176;2023-04-15T06:25:38;11.05;;;6.00;;
29044;SDS011;16133;49.486;12.176;2023-04-15T06:28:03;13.18;;;5.55;;
29044;SDS011;16133;49.486;12.176;2023-04-15T06:30:28;13.07;;;5.30;;
29044;SDS011;16133;49.486;12.176;2023-04-15T06:32:54;8.70;;;4.68;;
29044;SDS011;16133;49.486;12.176;2023-04-15T06:35:19;13.75;;;5.93;;
29044;SDS011;16133;49.486;12.176;2023-04-15T06:37:45;8.05;;;3.90;;
29044;SDS011;16133;49.486;12.176;2023-04-15T06:40:10;9.65;;;4.75;;
29044;SDS011;16133;49.486;12.176;2023-04-15T06:42:36;8.40;;;4.57;;
29044;SDS011;16133;49.486;12.176;2023-04-15T06:45:02;8.50;;;4.50;;
29044;SDS011;16133;49.486;12.176;2023-04-15T06:47:28;7.40;;;4.15;;
29044;SDS011;16133;49.486;12.176;2023-04-15T06:49:53;8.68;;;4.93;;
29044;SDS011;16133;49.486;12.176;2023-04-15T06:52:18;5.97;;;3.85;;
29044;SDS011;16133;49.486;12.176;2023-04-15T06:54:44;6.90;;;4.05;;
29044;SDS011;16133;49.486;12.176;2023-04-15T06:57:09;6.88;;;4.00;;
29044;SDS011;16133;49.486;12.176;2023-04-15T06:59:35;11.65;;;7.05;;
29044;SDS011;16133;49.486;12.176;2023-04-15T07:02:00;11.05;;;6.93;;
29044;SDS011;16133;49.486;12.176;2023-04-15T07:04:26;5.90;;;3.83;;
29044;SDS011;16133;49.486;12.176;2023-04-15T07:06:52;6.82;;;3.70;;
29044;SDS011;16133;49.486;12.176;2023-04-15T07:09:18;9.27;;;5.78;;
29044;SDS011;16133;49.486;12.176;2023-04-15T07:11:43;4.57;;;3.50;;
29044;SDS011;16133;49.486;12.176;2023-04-15T07:14:09;15.98;;;8.75;;
29044;SDS011;16133;49.486;12.176;2023-04-15T07:16:34;4.78;;;3.40;;
29044;SDS011;16133;49.486;12.176;2023-04-15T07:19:00;4.70;;;2.75;;
29044;SDS011;16133;49.486;12.176;2023-04-15T07:21:25;4.28;;;2.45;;
29044;SDS011;16133;49.486;12.176;2023-04-15T07:23:51;4.78;;;3.28;;
29044;SDS011;16133;49.486;12.176;2023-04-15T07:26:17;4.25;;;2.97;;
29044;SDS011;16133;49.486;12.176;2023-04-15T07:28:42;20.40;;;11.80;;
29044;SDS011;16133;49.486;12.176;2023-04-15T07:31:08;5.13;;;3.10;;
29044;SDS011;16133;49.486;12.176;2023-04-15T07:33:33;10.27;;;6.80;;
29044;SDS011;16133;49.486;12.176;2023-04-15T07:35:58;5.82;;;2.88;;
29044;SDS011;16133;49.486;12.176;2023-04-15T07:38:24;3.90;;;2.88;;
29044;SDS011;16133;49.486;12.176;2023-04-15T07:40:50;4.13;;;2.70;;
29044;SDS011;16133;49.486;12.176;2023-04-15T07:43:15;8.10;;;5.28;;
29044;SDS011;16133;49.486;12.176;2023-04-15T07:45:41;4.47;;;2.67;;
29044;SDS011;16133;49.486;12.176;2023-04-15T07:48:06;7.15;;;2.85;;
29044;SDS011;16133;49.486;12.176;2023-04-15T07:50:32;7.13;;;3.33;;
29044;SDS011;16133;49.486;12.176;2023-04-15T07:52:57;4.88;;;2.75;;
29044;SDS011;16133;49.486;12.176;2023-04-15T07:55:22;5.95;;;2.67;;
29044;SDS011;16133;49.486;12.176;2023-04-15T07:57:48;3.63;;;2.50;;
29044;SDS011;16133;49.486;12.176;2023-04-15T08:00:14;5.07;;;3.00;;
29044;SDS011;16133;49.486;12.176;2023-04-15T08:02:41;5.68;;;2.50;;
29044;SDS011;16133;49.486;12.176;2023-04-15T08:05:10;4.78;;;2.72;;
29044;SDS011;16133;49.486;12.176;2023-04-15T08:07:36;6.25;;;2.80;;
29044;SDS011;16133;49.486;12.176;2023-04-15T08:10:02;6.65;;;3.08;;
29044;SDS011;16133;49.486;12.176;2023-04-15T08:12:28;7.30;;;3.72;;
29044;SDS011;16133;49.486;12.176;2023-04-15T08:14:53;3.20;;;2.40;;
29044;SDS011;16133;49.486;12.176;2023-04-15T08:17:19;5.78;;;3.08;;
29044;SDS011;16133;49.486;12.176;2023-04-15T08:19:45;8.70;;;2.58;;
29044;SDS011;16133;49.486;12.176;2023-04-15T08:22:12;5.20;;;2.33;;
29044;SDS011;16133;49.486;12.176;2023-04-15T08:24:37;4.00;;;2.30;;
29044;SDS011;16133;49.486;12.176;2023-04-15T08:27:03;3.97;;;2.67;;
29044;SDS011;16133;49.486;12.176;2023-04-15T08:29:29;6.32;;;3.65;;
29044;SDS011;16133;49.486;12.176;2023-04-15T08:31:55;12.52;;;6.70;;
29044;SDS011;16133;49.486;12.176;2023-04-15T08:34:21;6.38;;;4.20;;
29044;SDS011;16133;49.486;12.176;2023-04-15T08:36:46;4.35;;;2.30;;
29044;SDS011;16133;49.486;12.176;2023-04-15T08:39:11;3.70;;;2.65;;
29044;SDS011;16133;49.486;12.176;2023-04-15T08:41:44;7.70;;;2.80;;
29044;SDS011;16133;49.486;12.176;2023-04-15T08:44:13;4.90;;;2.40;;
29044;SDS011;16133;49.486;12.176;2023-04-15T08:46:40;4.82;;;2.10;;
29044;SDS011;16133;49.486;12.176;2023-04-15T08:49:07;3.95;;;2.25;;
29044;SDS011;16133;49.486;12.176;2023-04-15T08:51:34;3.50;;;2.25;;
29044;SDS011;16133;49.486;12.176;2023-04-15T08:54:00;2.67;;;1.83;;
29044;SDS011;16133;49.486;12.176;2023-04-15T08:56:26;4.25;;;2.40;;
29044;SDS011;16133;49.486;12.176;2023-04-15T08:58:52;5.45;;;3.00;;
29044;SDS011;16133;49.486;12.176;2023-04-15T09:01:18;5.20;;;2.78;;
29044;SDS011;16133;49.486;12.176;2023-04-15T09:03:44;7.15;;;3.20;;
29044;SDS011;16133;49.486;12.176;2023-04-15T09:06:12;5.82;;;2.80;;
29044;SDS011;16133;49.486;12.176;2023-04-15T09:08:38;5.22;;;3.17;;
29044;SDS011;16133;49.486;12.176;2023-04-15T09:11:03;4.35;;;2.83;;
29044;SDS011;16133;49.486;12.176;2023-04-15T09:13:28;4.50;;;2.75;;
29044;SDS011;16133;49.486;12.176;2023-04-15T09:15:55;7.03;;;3.25;;
29044;SDS011;16133;49.486;12.176;2023-04-15T09:18:32;4.30;;;2.75;;
29044;SDS011;16133;49.486;12.176;2023-04-15T09:21:05;5.55;;;2.92;;
29044;SDS011;16133;49.486;12.176;2023-04-15T09:23:35;7.55;;;2.85;;
29044;SDS011;16133;49.486;12.176;2023-04-15T09:26:02;5.22;;;2.38;;
29044;SDS011;16133;49.486;12.176;2023-04-15T09:28:28;4.50;;;2.60;;
29044;SDS011;16133;49.486;12.176;2023-04-15T09:30:58;6.03;;;3.22;;
29044;SDS011;16133;49.486;12.176;2023-04-15T09:33:25;5.03;;;3.13;;
29044;SDS011;16133;49.486;12.176;2023-04-15T09:36:10;5.88;;;3.88;;
29044;SDS011;16133;49.486;12.176;2023-04-15T09:38:35;5.32;;;3.45;;
29044;SDS011;16133;49.486;12.176;2023-04-15T09:43:44;4.10;;;3.10;;
29044;SDS011;16133;49.486;12.176;2023-04-15T09:46:10;5.53;;;3.20;;
29044;SDS011;16133;49.486;12.176;2023-04-15T09:48:35;6.00;;;2.70;;
29044;SDS011;16133;49.486;12.176;2023-04-15T09:51:00;4.75;;;2.75;;
29044;SDS011;16133;49.486;12.176;2023-04-15T09:53:26;5.75;;;4.07;;
29044;SDS011;16133;49.486;12.176;2023-04-15T09:55:56;4.65;;;2.63;;
29044;SDS011;16133;49.486;12.176;2023-04-15T09:58:26;5.30;;;2.75;;
29044;SDS011;16133;49.486;12.176;2023-04-15T10:00:53;3.90;;;2.47;;
29044;SDS011;16133;49.486;12.176;2023-04-15T10:03:21;3.00;;;2.13;;
29044;SDS011;16133;49.486;12.176;2023-04-15T10:05:54;3.03;;;2.03;;
29044;SDS011;16133;49.486;12.176;2023-04-15T10:08:26;1.88;;;1.50;;
29044;SDS011;16133;49.486;12.176;2023-04-15T10:10:53;2.30;;;1.70;;
29044;SDS011;16133;49.486;12.176;2023-04-15T10:13:20;2.53;;;1.63;;
29044;SDS011;16133;49.486;12.176;2023-04-15T10:15:51;2.20;;;1.60;;
29044;SDS011;16133;49.486;12.176;2023-04-15T10:18:18;2.60;;;1.80;;
29044;SDS011;16133;49.486;12.176;2023-04-15T10:20:45;3.00;;;1.80;;
29044;SDS011;16133;49.486;12.176;2023-04-15T10:23:12;5.13;;;2.78;;
29044;SDS011;16133;49.486;12.176;2023-04-15T10:25:39;7.03;;;3.90;;
29044;SDS011;16133;49.486;12.176;2023-04-15T10:28:07;3.72;;;2.45;;
29044;SDS011;16133;49.486;12.176;2023-04-15T10:30:33;3.42;;;2.53;;
29044;SDS011;16133;49.486;12.176;2023-04-15T10:33:00;4.20;;;2.78;;
29044;SDS011;16133;49.486;12.176;2023-04-15T10:35:28;5.80;;;3.20;;
29044;SDS011;16133;49.486;12.176;2023-04-15T10:37:54;3.35;;;2.22;;
29044;SDS011;16133;49.486;12.176;2023-04-15T10:42:49;3.15;;;2.15;;
29044;SDS011;16133;49.486;12.176;2023-04-15T10:45:15;3.05;;;1.90;;
29044;SDS011;16133;49.486;12.176;2023-04-15T10:47:42;2.72;;;2.13;;
29044;SDS011;16133;49.486;12.176;2023-04-15T10:50:08;2.95;;;2.08;;
29044;SDS011;16133;49.486;12.176;2023-04-15T10:52:33;3.15;;;2.05;;
29044;SDS011;16133;49.486;12.176;2023-04-15T10:57:38;4.55;;;3.17;;
29044;SDS011;16133;49.486;12.176;2023-04-15T11:00:14;5.57;;;3.28;;
29044;SDS011;16133;49.486;12.176;2023-04-15T11:05:16;6.13;;;3.55;;
29044;SDS011;16133;49.486;12.176;2023-04-15T11:12:43;4.47;;;2.83;;
29044;SDS011;16133;49.486;12.176;2023-04-15T11:20:52;3.85;;;2.45;;
29044;SDS011;16133;49.486;12.176;2023-04-15T11:23:32;3.22;;;2.47;;
29044;SDS011;16133;49.486;12.176;2023-04-15T11:25:58;3.78;;;2.60;;
29044;SDS011;16133;49.486;12.176;2023-04-15T11:28:25;4.75;;;2.70;;
29044;SDS011;16133;49.486;12.176;2023-04-15T11:30:52;6.45;;;2.92;;
29044;SDS011;16133;49.486;12.176;2023-04-15T11:33:19;4.30;;;2.92;;
29044;SDS011;16133;49.486;12.176;2023-04-15T11:35:45;3.90;;;2.53;;
29044;SDS011;16133;49.486;12.176;2023-04-15T11:38:11;2.53;;;2.10;;
29044;SDS011;16133;49.486;12.176;2023-04-15T11:40:40;3.35;;;2.42;;
29044;SDS011;16133;49.486;12.176;2023-04-15T11:43:08;4.80;;;2.75;;
29044;SDS011;16133;49.486;12.176;2023-04-15T11:46:00;3.47;;;2.63;;
29044;SDS011;16133;49.486;12.176;2023-04-15T11:48:25;5.63;;;3.05;;
29044;SDS011;16133;49.486;12.176;2023-04-15T11:50:56;3.47;;;2.47;;
29044;SDS011;16133;49.486;12.176;2023-04-15T11:53:22;3.97;;;3.00;;
29044;SDS011;16133;49.486;12.176;2023-04-15T11:55:49;3.72;;;2.30;;
29044;SDS011;16133;49.486;12.176;2023-04-15T11:58:18;4.28;;;2.70;;
29044;SDS011;16133;49.486;12.176;2023-04-15T12:03:14;6.07;;;3.13;;
29044;SDS011;16133;49.486;12.176;2023-04-15T12:08:46;6.38;;;4.03;;
29044;SDS011;16133;49.486;12.176;2023-04-15T12:11:26;5.40;;;2.95;;
29044;SDS011;16133;49.486;12.176;2023-04-15T12:13:55;7.75;;;3.80;;
29044;SDS011;16133;49.486;12.176;2023-04-15T12:16:22;6.53;;;3.90;;
29044;SDS011;16133;49.486;12.176;2023-04-15T12:18:52;4.53;;;3.28;;
29044;SDS011;16133;49.486;12.176;2023-04-15T12:21:20;4.82;;;2.83;;
29044;SDS011;16133;49.486;12.176;2023-04-15T12:23:47;5.85;;;2.95;;
29044;SDS011;16133;49.486;12.176;2023-04-15T12:26:14;4.90;;;2.80;;
29044;SDS011;16133;49.486;12.176;2023-04-15T12:28:40;4.55;;;3.10;;
29044;SDS011;16133;49.486;12.176;2023-04-15T12:31:09;5.65;;;3.20;;
29044;SDS011;16133;49.486;12.176;2023-04-15T12:33:35;6.28;;;3.83;;
29044;SDS011;16133;49.486;12.176;2023-04-15T12:36:02;8.50;;;4.28;;
29044;SDS011;16133;49.486;12.176;2023-04-15T12:38:28;9.32;;;3.75;;
29044;SDS011;16133;49.486;12.176;2023-04-15T12:40:54;7.10;;;3.17;;
29044;SDS011;16133;49.486;12.176;2023-04-15T12:43:19;6.47;;;3.92;;
29044;SDS011;16133;49.486;12.176;2023-04-15T12:45:44;6.10;;;3.65;;
29044;SDS011;16133;49.486;12.176;2023-04-15T12:48:10;5.85;;;3.58;;
29044;SDS011;16133;49.486;12.176;2023-04-15T12:50:36;8.07;;;4.68;;
29044;SDS011;16133;49.486;12.176;2023-04-15T12:53:02;5.63;;;3.58;;
29044;SDS011;16133;49.486;12.176;2023-04-15T12:55:29;5.35;;;3.58;;
29044;SDS011;16133;49.486;12.176;2023-04-15T12:57:56;4.82;;;3.25;;
29044;SDS011;16133;49.486;12.176;2023-04-15T13:00:21;4.38;;;3.45;;
29044;SDS011;16133;49.486;12.176;2023-04-15T13:02:47;3.97;;;3.03;;
29044;SDS011;16133;49.486;12.176;2023-04-15T13:05:13;6.90;;;4.10;;
29044;SDS011;16133;49.486;12.176;2023-04-15T13:07:39;6.63;;;3.50;;
29044;SDS011;16133;49.486;12.176;2023-04-15T13:10:05;6.35;;;3.33;;
29044;SDS011;16133;49.486;12.176;2023-04-15T13:12:31;6.28;;;4.10;;
29044;SDS011;16133;49.486;12.176;2023-04-15T13:15:00;4.72;;;3.42;;
29044;SDS011;16133;49.486;12.176;2023-04-15T13:17:26;5.75;;;3.67;;
29044;SDS011;16133;49.486;12.176;2023-04-15T13:19:51;4.97;;;3.42;;
29044;SDS011;16133;49.486;12.176;2023-04-15T13:22:17;4.18;;;3.33;;
29044;SDS011;16133;49.486;12.176;2023-04-15T13:24:42;5.45;;;3.22;;
29044;SDS011;16133;49.486;12.176;2023-04-15T13:27:08;4.40;;;2.78;;
29044;SDS011;16133;49.486;12.176;2023-04-15T13:29:33;7.30;;;3.97;;
29044;SDS011;16133;49.486;12.176;2023-04-15T13:31:58;5.00;;;3.20;;
29044;SDS011;16133;49.486;12.176;2023-04-15T13:34:25;4.60;;;2.90;;
29044;SDS011;16133;49.486;12.176;2023-04-15T13:36:50;7.43;;;5.10;;
29044;SDS011;16133;49.486;12.176;2023-04-15T13:39:16;5.22;;;3.38;;
29044;SDS011;16133;49.486;12.176;2023-04-15T13:41:41;4.97;;;3.60;;
29044;SDS011;16133;49.486;12.176;2023-04-15T13:44:07;9.60;;;4.32;;
29044;SDS011;16133;49.486;12.176;2023-04-15T13:46:35;16.55;;;6.72;;
29044;SDS011;16133;49.486;12.176;2023-04-15T13:49:02;7.40;;;4.38;;
29044;SDS011;16133;49.486;12.176;2023-04-15T13:51:27;6.55;;;3.70;;
29044;SDS011;16133;49.486;12.176;2023-04-15T13:53:53;4.10;;;3.00;;
29044;SDS011;16133;49.486;12.176;2023-04-15T13:56:18;7.03;;;3.78;;
29044;SDS011;16133;49.486;12.176;2023-04-15T13:58:43;5.50;;;2.95;;
29044;SDS011;16133;49.486;12.176;2023-04-15T14:01:09;6.63;;;4.18;;
29044;SDS011;16133;49.486;12.176;2023-04-15T14:03:34;7.07;;;3.97;;
29044;SDS011;16133;49.486;12.176;2023-04-15T14:06:00;6.90;;;3.60;;
29044;SDS011;16133;49.486;12.176;2023-04-15T14:08:25;5.60;;;2.97;;
29044;SDS011;16133;49.486;12.176;2023-04-15T14:10:51;13.10;;;5.63;;
29044;SDS011;16133;49.486;12.176;2023-04-15T14:13:16;10.07;;;4.80;;
29044;SDS011;16133;49.486;12.176;2023-04-15T14:15:43;7.15;;;4.07;;
29044;SDS011;16133;49.486;12.176;2023-04-15T14:18:08;6.40;;;3.72;;
29044;SDS011;16133;49.486;12.176;2023-04-15T14:20:34;7.45;;;4.53;;
29044;SDS011;16133;49.486;12.176;2023-04-15T14:22:59;6.75;;;4.35;;
29044;SDS011;16133;49.486;12.176;2023-04-15T14:25:25;7.28;;;3.75;;
29044;SDS011;16133;49.486;12.176;2023-04-15T14:27:51;7.50;;;3.40;;
29044;SDS011;16133;49.486;12.176;2023-04-15T14:30:16;8.75;;;4.13;;
29044;SDS011;16133;49.486;12.176;2023-04-15T14:32:41;25.80;;;10.45;;
29044;SDS011;16133;49.486;12.176;2023-04-15T14:35:07;17.15;;;7.47;;
29044;SDS011;16133;49.486;12.176;2023-04-15T14:37:32;15.93;;;6.05;;
29044;SDS011;16133;49.486;12.176;2023-04-15T14:39:58;6.75;;;4.07;;
29044;SDS011;16133;49.486;12.176;2023-04-15T14:42:23;6.10;;;3.60;;
29044;SDS011;16133;49.486;12.176;2023-04-15T14:44:49;5.85;;;3.05;;
29044;SDS011;16133;49.486;12.176;2023-04-15T14:47:14;6.60;;;3.85;;